sensor_id;sensor_type;location;lat;lon;timestamp;pressure;altitude;pressure_sealevel;temperature;humidity
49529;BME280;35423;37.320;-121.762;2022-08-03T00:01:29;99819.14;;;47.43;7.08
49529;BME280;35423;37.320;-121.762;2022-08-03T00:03:57;99819.12;;;47.32;7.16
49529;BME280;35423;37.320;-121.762;2022-08-03T00:06:23;99815.25;;;47.21;7.08
49529;BME280;35423;37.320;-121.762;2022-08-03T00:08:49;99817.14;;;47.12;7.17
49529;BME280;35423;37.320;-121.762;2022-08-03T00:11:13;99816.70;;;46.82;7.13
49529;BME280;35423;37.320;-121.762;2022-08-03T00:13:38;99818.35;;;46.77;7.11
49529;BME280;35423;37.320;-121.762;2022-08-03T00:16:04;99815.17;;;46.80;6.97
49529;BME280;35423;37.320;-121.762;2022-08-03T00:18:33;99811.11;;;46.20;7.10
49529;BME280;35423;37.320;-121.762;2022-08-03T00:20:59;99810.97;;;46.18;7.18
49529;BME280;35423;37.320;-121.762;2022-08-03T00:23:24;99811.01;;;45.81;7.21
49529;BME280;35423;37.320;-121.762;2022-08-03T00:25:55;99810.60;;;45.43;7.28
49529;BME280;35423;37.320;-121.762;2022-08-03T00:28:22;99810.34;;;45.26;7.43
49529;BME280;35423;37.320;-121.762;2022-08-03T00:30:48;99807.54;;;44.99;7.49
49529;BME280;35423;37.320;-121.762;2022-08-03T00:33:14;99807.15;;;44.58;7.55
49529;BME280;35423;37.320;-121.762;2022-08-03T00:35:42;99808.95;;;44.33;7.83
49529;BME280;35423;37.320;-121.762;2022-08-03T00:38:10;99809.09;;;44.28;7.96
49529;BME280;35423;37.320;-121.762;2022-08-03T00:40:36;99809.70;;;44.25;7.97
49529;BME280;35423;37.320;-121.762;2022-08-03T00:43:07;99808.41;;;43.66;8.07
49529;BME280;35423;37.320;-121.762;2022-08-03T00:45:35;99812.46;;;43.14;8.25
49529;BME280;35423;37.320;-121.762;2022-08-03T00:47:58;99821.79;;;43.22;8.51
49529;BME280;35423;37.320;-121.762;2022-08-03T00:50:34;99819.00;;;42.76;8.48
49529;BME280;35423;37.320;-121.762;2022-08-03T00:52:59;99823.29;;;43.17;8.58
49529;BME280;35423;37.320;-121.762;2022-08-03T00:55:30;99828.21;;;42.96;8.67
49529;BME280;35423;37.320;-121.762;2022-08-03T00:57:57;99832.47;;;42.67;8.97
49529;BME280;35423;37.320;-121.762;2022-08-03T01:00:25;99833.45;;;42.72;9.02
49529;BME280;35423;37.320;-121.762;2022-08-03T01:02:51;99836.04;;;42.58;9.28
49529;BME280;35423;37.320;-121.762;2022-08-03T01:05:17;99841.98;;;42.36;9.30
49529;BME280;35423;37.320;-121.762;2022-08-03T01:07:56;99838.25;;;42.05;9.29
49529;BME280;35423;37.320;-121.762;2022-08-03T01:10:18;99836.67;;;42.31;9.02
49529;BME280;35423;37.320;-121.762;2022-08-03T01:12:46;99837.68;;;42.04;9.06
49529;BME280;35423;37.320;-121.762;2022-08-03T01:15:14;99843.81;;;41.83;9.06
49529;BME280;35423;37.320;-121.762;2022-08-03T01:17:39;99846.58;;;41.71;9.08
49529;BME280;35423;37.320;-121.762;2022-08-03T01:20:02;99851.60;;;41.68;9.07
49529;BME280;35423;37.320;-121.762;2022-08-03T01:22:44;99849.79;;;41.84;8.99
49529;BME280;35423;37.320;-121.762;2022-08-03T01:25:05;99851.27;;;41.96;9.04
49529;BME280;35423;37.320;-121.762;2022-08-03T01:27:33;99849.18;;;41.80;9.22
49529;BME280;35423;37.320;-121.762;2022-08-03T01:32:19;99846.52;;;41.93;9.38
49529;BME280;35423;37.320;-121.762;2022-08-03T01:34:46;99847.66;;;41.66;9.40
49529;BME280;35423;37.320;-121.762;2022-08-03T01:37:09;99847.96;;;41.23;9.61
49529;BME280;35423;37.320;-121.762;2022-08-03T01:39:35;99850.18;;;41.19;9.59
49529;BME280;35423;37.320;-121.762;2022-08-03T01:42:05;99852.72;;;41.05;9.70
49529;BME280;35423;37.320;-121.762;2022-08-03T01:44:33;99852.37;;;41.02;9.75
49529;BME280;35423;37.320;-121.762;2022-08-03T01:46:55;99854.64;;;40.76;9.62
49529;BME280;35423;37.320;-121.762;2022-08-03T01:49:20;99853.72;;;40.56;9.82
49529;BME280;35423;37.320;-121.762;2022-08-03T01:51:47;99849.53;;;40.21;9.92
49529;BME280;35423;37.320;-121.762;2022-08-03T01:54:18;99846.08;;;40.43;10.06
49529;BME280;35423;37.320;-121.762;2022-08-03T01:56:47;99847.66;;;40.10;10.24
49529;BME280;35423;37.320;-121.762;2022-08-03T01:59:12;99855.77;;;39.57;10.35
49529;BME280;35423;37.320;-121.762;2022-08-03T02:01:38;99863.73;;;39.72;10.25
49529;BME280;35423;37.320;-121.762;2022-08-03T02:04:04;99865.32;;;39.67;10.15
49529;BME280;35423;37.320;-121.762;2022-08-03T02:06:32;99862.96;;;38.60;10.33
49529;BME280;35423;37.320;-121.762;2022-08-03T02:08:57;99865.64;;;38.89;10.51
49529;BME280;35423;37.320;-121.762;2022-08-03T02:11:21;99873.58;;;38.54;10.74
49529;BME280;35423;37.320;-121.762;2022-08-03T02:13:50;99877.40;;;38.28;10.92
49529;BME280;35423;37.320;-121.762;2022-08-03T02:16:18;99883.13;;;38.52;11.15
49529;BME280;35423;37.320;-121.762;2022-08-03T02:18:43;99887.23;;;38.34;11.44
49529;BME280;35423;37.320;-121.762;2022-08-03T02:21:10;99887.57;;;38.05;11.63
49529;BME280;35423;37.320;-121.762;2022-08-03T02:23:37;99887.74;;;37.94;11.78
49529;BME280;35423;37.320;-121.762;2022-08-03T02:26:13;99886.36;;;37.75;11.86
49529;BME280;35423;37.320;-121.762;2022-08-03T02:28:34;99889.66;;;37.58;12.00
49529;BME280;35423;37.320;-121.762;2022-08-03T02:30:56;99895.17;;;37.32;12.19
49529;BME280;35423;37.320;-121.762;2022-08-03T02:33:26;99901.63;;;37.02;12.72
49529;BME280;35423;37.320;-121.762;2022-08-03T02:35:51;99903.89;;;36.82;13.04
49529;BME280;35423;37.320;-121.762;2022-08-03T02:38:25;99900.93;;;36.85;13.16
49529;BME280;35423;37.320;-121.762;2022-08-03T02:40:46;99897.31;;;36.70;13.22
49529;BME280;35423;37.320;-121.762;2022-08-03T02:43:20;99894.86;;;36.56;13.24
49529;BME280;35423;37.320;-121.762;2022-08-03T02:45:49;99895.25;;;36.37;13.28
49529;BME280;35423;37.320;-121.762;2022-08-03T02:48:23;99901.69;;;36.35;13.43
49529;BME280;35423;37.320;-121.762;2022-08-03T02:50:42;99903.89;;;36.04;13.59
49529;BME280;35423;37.320;-121.762;2022-08-03T02:53:06;99901.92;;;35.56;13.96
49529;BME280;35423;37.320;-121.762;2022-08-03T02:55:37;99898.06;;;35.62;14.21
49529;BME280;35423;37.320;-121.762;2022-08-03T02:58:04;99898.34;;;35.75;14.47
49529;BME280;35423;37.320;-121.762;2022-08-03T03:00:30;99905.19;;;34.99;14.65
49529;BME280;35423;37.320;-121.762;2022-08-03T03:02:58;99911.20;;;35.40;14.72
49529;BME280;35423;37.320;-121.762;2022-08-03T03:05:45;99920.83;;;35.13;14.83
49529;BME280;35423;37.320;-121.762;2022-08-03T03:08:12;99922.10;;;34.85;14.77
49529;BME280;35423;37.320;-121.762;2022-08-03T03:10:35;99925.92;;;34.95;14.69
49529;BME280;35423;37.320;-121.762;2022-08-03T03:13:01;99926.21;;;34.82;14.87
49529;BME280;35423;37.320;-121.762;2022-08-03T03:15:28;99926.44;;;34.82;14.95
49529;BME280;35423;37.320;-121.762;2022-08-03T03:17:59;99928.03;;;34.91;14.99
49529;BME280;35423;37.320;-121.762;2022-08-03T03:20:28;99927.98;;;34.38;14.98
49529;BME280;35423;37.320;-121.762;2022-08-03T03:23:01;99928.90;;;34.29;15.09
49529;BME280;35423;37.320;-121.762;2022-08-03T03:25:26;99925.43;;;34.42;15.24
49529;BME280;35423;37.320;-121.762;2022-08-03T03:27:54;99923.33;;;34.17;15.49
49529;BME280;35423;37.320;-121.762;2022-08-03T03:30:21;99925.06;;;34.01;15.68
49529;BME280;35423;37.320;-121.762;2022-08-03T03:32:50;99926.49;;;33.85;15.75
49529;BME280;35423;37.320;-121.762;2022-08-03T03:35:21;99934.78;;;34.05;15.85
49529;BME280;35423;37.320;-121.762;2022-08-03T03:37:47;99935.47;;;33.65;16.01
49529;BME280;35423;37.320;-121.762;2022-08-03T03:40:13;99930.97;;;33.62;16.12
49529;BME280;35423;37.320;-121.762;2022-08-03T03:42:48;99932.88;;;33.49;16.35
49529;BME280;35423;37.320;-121.762;2022-08-03T03:45:17;99935.51;;;33.42;16.42
49529;BME280;35423;37.320;-121.762;2022-08-03T03:47:52;99938.83;;;33.27;16.53
49529;BME280;35423;37.320;-121.762;2022-08-03T03:52:45;99947.09;;;32.99;16.76
49529;BME280;35423;37.320;-121.762;2022-08-03T03:55:15;99946.99;;;32.80;16.83
49529;BME280;35423;37.320;-121.762;2022-08-03T03:57:35;99949.62;;;32.95;16.91
49529;BME280;35423;37.320;-121.762;2022-08-03T04:00:02;99951.68;;;32.92;16.98
49529;BME280;35423;37.320;-121.762;2022-08-03T04:02:31;99953.48;;;32.45;16.96
49529;BME280;35423;37.320;-121.762;2022-08-03T04:05:00;99954.78;;;32.87;16.90
49529;BME280;35423;37.320;-121.762;2022-08-03T04:07:35;99956.62;;;32.71;16.78
49529;BME280;35423;37.320;-121.762;2022-08-03T04:09:57;99960.58;;;32.68;16.85
49529;BME280;35423;37.320;-121.762;2022-08-03T04:12:23;99963.68;;;32.52;16.92
49529;BME280;35423;37.320;-121.762;2022-08-03T04:14:53;99967.93;;;32.63;16.88
49529;BME280;35423;37.320;-121.762;2022-08-03T04:17:18;99973.04;;;32.16;16.88
49529;BME280;35423;37.320;-121.762;2022-08-03T04:19:49;99970.34;;;31.95;16.88
49529;BME280;35423;37.320;-121.762;2022-08-03T04:22:10;99973.38;;;31.98;16.97
49529;BME280;35423;37.320;-121.762;2022-08-03T04:24:42;99973.27;;;31.56;17.08
49529;BME280;35423;37.320;-121.762;2022-08-03T04:27:07;99973.73;;;31.63;17.17
49529;BME280;35423;37.320;-121.762;2022-08-03T04:29:32;99973.71;;;31.32;17.22
49529;BME280;35423;37.320;-121.762;2022-08-03T04:31:57;99974.44;;;31.56;17.21
49529;BME280;35423;37.320;-121.762;2022-08-03T04:34:21;99977.40;;;31.35;17.36
49529;BME280;35423;37.320;-121.762;2022-08-03T04:36:59;99981.31;;;31.29;17.41
49529;BME280;35423;37.320;-121.762;2022-08-03T04:39:30;99982.02;;;31.28;17.39
49529;BME280;35423;37.320;-121.762;2022-08-03T04:42:01;99982.02;;;31.24;17.43
49529;BME280;35423;37.320;-121.762;2022-08-03T04:44:24;99984.03;;;31.22;17.46
49529;BME280;35423;37.320;-121.762;2022-08-03T04:46:49;99982.34;;;31.14;17.49
49529;BME280;35423;37.320;-121.762;2022-08-03T04:49:18;99981.12;;;31.29;17.55
49529;BME280;35423;37.320;-121.762;2022-08-03T04:51:50;99976.52;;;31.29;17.72
49529;BME280;35423;37.320;-121.762;2022-08-03T04:54:18;99974.42;;;30.79;17.77
49529;BME280;35423;37.320;-121.762;2022-08-03T04:56:48;99978.57;;;31.16;17.88
49529;BME280;35423;37.320;-121.762;2022-08-03T04:59:13;99979.41;;;31.11;17.97
49529;BME280;35423;37.320;-121.762;2022-08-03T05:01:43;99979.72;;;30.88;18.13
49529;BME280;35423;37.320;-121.762;2022-08-03T05:04:09;99980.72;;;30.78;18.26
49529;BME280;35423;37.320;-121.762;2022-08-03T05:06:41;99981.63;;;30.66;18.45
49529;BME280;35423;37.320;-121.762;2022-08-03T05:09:08;99980.18;;;30.74;18.44
49529;BME280;35423;37.320;-121.762;2022-08-03T05:11:36;99980.70;;;30.35;18.43
49529;BME280;35423;37.320;-121.762;2022-08-03T05:14:00;99983.81;;;30.51;18.45
49529;BME280;35423;37.320;-121.762;2022-08-03T05:16:33;99982.61;;;30.50;18.51
49529;BME280;35423;37.320;-121.762;2022-08-03T05:18:59;99986.86;;;30.50;18.50
49529;BME280;35423;37.320;-121.762;2022-08-03T05:21:28;99983.07;;;30.35;18.63
49529;BME280;35423;37.320;-121.762;2022-08-03T05:23:55;99981.30;;;30.41;18.64
49529;BME280;35423;37.320;-121.762;2022-08-03T05:26:28;99978.33;;;30.39;18.68
49529;BME280;35423;37.320;-121.762;2022-08-03T05:28:55;99983.83;;;30.55;18.75
49529;BME280;35423;37.320;-121.762;2022-08-03T05:31:25;99984.22;;;30.68;18.73
49529;BME280;35423;37.320;-121.762;2022-08-03T05:33:52;99983.53;;;30.45;18.82
49529;BME280;35423;37.320;-121.762;2022-08-03T05:36:24;99980.57;;;30.34;18.84
49529;BME280;35423;37.320;-121.762;2022-08-03T05:38:52;99981.41;;;30.52;18.85
49529;BME280;35423;37.320;-121.762;2022-08-03T05:41:20;99979.65;;;29.96;18.86
49529;BME280;35423;37.320;-121.762;2022-08-03T05:43:48;99979.68;;;29.96;19.02
49529;BME280;35423;37.320;-121.762;2022-08-03T05:46:14;99979.03;;;30.18;19.11
49529;BME280;35423;37.320;-121.762;2022-08-03T05:48:39;99975.58;;;30.15;19.13
49529;BME280;35423;37.320;-121.762;2022-08-03T05:51:06;99975.44;;;30.16;19.15
49529;BME280;35423;37.320;-121.762;2022-08-03T05:53:34;99969.81;;;29.67;19.16
49529;BME280;35423;37.320;-121.762;2022-08-03T05:56:01;99972.76;;;29.97;19.28
49529;BME280;35423;37.320;-121.762;2022-08-03T05:58:31;99973.90;;;29.95;19.34
49529;BME280;35423;37.320;-121.762;2022-08-03T06:00:57;99969.54;;;29.88;19.44
49529;BME280;35423;37.320;-121.762;2022-08-03T06:03:23;99971.75;;;29.87;19.43
49529;BME280;35423;37.320;-121.762;2022-08-03T06:06:00;99976.08;;;29.81;19.50
49529;BME280;35423;37.320;-121.762;2022-08-03T06:08:26;99979.43;;;29.35;19.64
49529;BME280;35423;37.320;-121.762;2022-08-03T06:10:52;99984.60;;;29.51;19.79
49529;BME280;35423;37.320;-121.762;2022-08-03T06:13:17;99985.98;;;29.51;19.93
49529;BME280;35423;37.320;-121.762;2022-08-03T06:15:44;99983.99;;;29.35;20.08
49529;BME280;35423;37.320;-121.762;2022-08-03T06:18:10;99981.05;;;29.41;20.30
49529;BME280;35423;37.320;-121.762;2022-08-03T06:20:41;99978.72;;;29.36;20.44
49529;BME280;35423;37.320;-121.762;2022-08-03T06:23:08;99978.28;;;29.25;20.51
49529;BME280;35423;37.320;-121.762;2022-08-03T06:25:36;99974.23;;;29.48;20.54
49529;BME280;35423;37.320;-121.762;2022-08-03T06:28:02;99973.99;;;29.15;20.50
49529;BME280;35423;37.320;-121.762;2022-08-03T06:30:29;99975.61;;;29.06;20.48
49529;BME280;35423;37.320;-121.762;2022-08-03T06:32:54;99980.83;;;29.23;20.53
49529;BME280;35423;37.320;-121.762;2022-08-03T06:35:21;99982.96;;;28.92;20.71
49529;BME280;35423;37.320;-121.762;2022-08-03T06:37:48;99984.79;;;29.01;21.03
49529;BME280;35423;37.320;-121.762;2022-08-03T06:40:20;99983.95;;;28.88;21.29
49529;BME280;35423;37.320;-121.762;2022-08-03T06:42:46;99983.03;;;28.80;21.48
49529;BME280;35423;37.320;-121.762;2022-08-03T06:45:14;99979.38;;;28.79;21.57
49529;BME280;35423;37.320;-121.762;2022-08-03T06:47:43;99978.36;;;28.78;21.61
49529;BME280;35423;37.320;-121.762;2022-08-03T06:50:10;99979.08;;;28.70;21.76
49529;BME280;35423;37.320;-121.762;2022-08-03T06:52:35;99977.79;;;28.73;21.79
49529;BME280;35423;37.320;-121.762;2022-08-03T06:55:01;99980.01;;;28.71;21.68
49529;BME280;35423;37.320;-121.762;2022-08-03T06:57:28;99984.95;;;28.65;21.66
49529;BME280;35423;37.320;-121.762;2022-08-03T06:59:54;99984.70;;;28.35;21.70
49529;BME280;35423;37.320;-121.762;2022-08-03T07:02:21;99984.95;;;28.61;21.68
49529;BME280;35423;37.320;-121.762;2022-08-03T07:04:49;99984.67;;;28.49;21.70
49529;BME280;35423;37.320;-121.762;2022-08-03T07:07:15;99989.97;;;28.38;21.81
49529;BME280;35423;37.320;-121.762;2022-08-03T07:09:42;99988.33;;;28.33;21.79
49529;BME280;35423;37.320;-121.762;2022-08-03T07:12:09;99983.37;;;28.34;21.86
49529;BME280;35423;37.320;-121.762;2022-08-03T07:14:36;99983.01;;;28.28;21.97
49529;BME280;35423;37.320;-121.762;2022-08-03T07:17:01;99983.43;;;28.23;22.09
49529;BME280;35423;37.320;-121.762;2022-08-03T07:19:28;99988.51;;;28.17;22.33
49529;BME280;35423;37.320;-121.762;2022-08-03T07:21:55;99991.81;;;28.03;22.53
49529;BME280;35423;37.320;-121.762;2022-08-03T07:24:22;99994.70;;;28.20;22.69
49529;BME280;35423;37.320;-121.762;2022-08-03T07:26:48;99998.40;;;28.34;22.81
49529;BME280;35423;37.320;-121.762;2022-08-03T07:29:13;99994.67;;;27.86;22.84
49529;BME280;35423;37.320;-121.762;2022-08-03T07:31:41;99992.79;;;27.72;22.94
49529;BME280;35423;37.320;-121.762;2022-08-03T07:34:07;99992.02;;;27.93;23.03
49529;BME280;35423;37.320;-121.762;2022-08-03T07:36:34;99987.27;;;28.05;23.11
49529;BME280;35423;37.320;-121.762;2022-08-03T07:39:01;99985.84;;;27.82;23.06
49529;BME280;35423;37.320;-121.762;2022-08-03T07:41:32;99984.16;;;28.08;23.00
49529;BME280;35423;37.320;-121.762;2022-08-03T07:43:58;99979.97;;;28.01;23.05
49529;BME280;35423;37.320;-121.762;2022-08-03T07:46:24;99980.82;;;27.61;23.20
49529;BME280;35423;37.320;-121.762;2022-08-03T07:48:52;99982.76;;;27.79;23.31
49529;BME280;35423;37.320;-121.762;2022-08-03T07:51:18;99985.99;;;27.73;23.46
49529;BME280;35423;37.320;-121.762;2022-08-03T07:53:44;99986.51;;;27.75;23.61
49529;BME280;35423;37.320;-121.762;2022-08-03T07:56:15;99987.31;;;27.66;23.72
49529;BME280;35423;37.320;-121.762;2022-08-03T07:58:42;99988.73;;;27.37;23.83
49529;BME280;35423;37.320;-121.762;2022-08-03T08:01:09;99990.92;;;27.43;23.97
49529;BME280;35423;37.320;-121.762;2022-08-03T08:03:39;99988.57;;;27.52;24.00
49529;BME280;35423;37.320;-121.762;2022-08-03T08:06:06;99984.05;;;27.31;23.99
49529;BME280;35423;37.320;-121.762;2022-08-03T08:08:35;99981.87;;;27.31;24.17
49529;BME280;35423;37.320;-121.762;2022-08-03T08:11:00;99977.77;;;27.23;24.21
49529;BME280;35423;37.320;-121.762;2022-08-03T08:13:31;99973.06;;;27.19;24.27
49529;BME280;35423;37.320;-121.762;2022-08-03T08:15:58;99969.99;;;27.12;24.35
49529;BME280;35423;37.320;-121.762;2022-08-03T08:18:24;99969.15;;;27.45;24.33
49529;BME280;35423;37.320;-121.762;2022-08-03T08:20:50;99970.74;;;27.15;24.36
49529;BME280;35423;37.320;-121.762;2022-08-03T08:23:16;99972.08;;;27.07;24.46
49529;BME280;35423;37.320;-121.762;2022-08-03T08:25:41;99972.47;;;27.09;24.53
49529;BME280;35423;37.320;-121.762;2022-08-03T08:28:10;99974.06;;;27.12;24.76
49529;BME280;35423;37.320;-121.762;2022-08-03T08:30:37;99972.92;;;26.72;24.92
49529;BME280;35423;37.320;-121.762;2022-08-03T08:33:03;99968.20;;;27.18;25.01
49529;BME280;35423;37.320;-121.762;2022-08-03T08:35:29;99965.93;;;26.92;25.13
49529;BME280;35423;37.320;-121.762;2022-08-03T08:37:54;99962.47;;;27.08;25.16
49529;BME280;35423;37.320;-121.762;2022-08-03T08:40:22;99952.92;;;27.07;25.12
49529;BME280;35423;37.320;-121.762;2022-08-03T08:42:49;99956.21;;;26.81;25.37
49529;BME280;35423;37.320;-121.762;2022-08-03T08:45:20;99955.82;;;26.95;25.47
49529;BME280;35423;37.320;-121.762;2022-08-03T08:47:48;99948.94;;;26.85;25.63
49529;BME280;35423;37.320;-121.762;2022-08-03T08:50:19;99944.98;;;26.54;25.79
49529;BME280;35423;37.320;-121.762;2022-08-03T08:52:46;99942.23;;;26.85;25.91
49529;BME280;35423;37.320;-121.762;2022-08-03T08:55:18;99941.15;;;26.75;25.98
49529;BME280;35423;37.320;-121.762;2022-08-03T08:57:47;99938.65;;;26.78;26.05
49529;BME280;35423;37.320;-121.762;2022-08-03T09:00:12;99932.91;;;26.73;26.07
49529;BME280;35423;37.320;-121.762;2022-08-03T09:02:41;99931.23;;;26.63;26.11
49529;BME280;35423;37.320;-121.762;2022-08-03T09:05:07;99930.64;;;26.29;26.19
49529;BME280;35423;37.320;-121.762;2022-08-03T09:07:32;99924.89;;;26.54;26.39
49529;BME280;35423;37.320;-121.762;2022-08-03T09:10:00;99921.77;;;26.35;26.57
49529;BME280;35423;37.320;-121.762;2022-08-03T09:12:27;99921.62;;;26.25;26.64
49529;BME280;35423;37.320;-121.762;2022-08-03T09:14:55;99916.36;;;26.39;26.74
49529;BME280;35423;37.320;-121.762;2022-08-03T09:17:19;99914.43;;;26.37;26.86
49529;BME280;35423;37.320;-121.762;2022-08-03T09:22:14;99914.06;;;26.10;26.99
49529;BME280;35423;37.320;-121.762;2022-08-03T09:27:07;99917.41;;;25.90;26.40
49529;BME280;35423;37.320;-121.762;2022-08-03T09:29:36;99920.77;;;26.11;26.30
49529;BME280;35423;37.320;-121.762;2022-08-03T09:32:05;99918.09;;;25.85;26.31
49529;BME280;35423;37.320;-121.762;2022-08-03T09:34:32;99919.35;;;25.81;26.46
49529;BME280;35423;37.320;-121.762;2022-08-03T09:36:57;99920.68;;;26.04;26.62
49529;BME280;35423;37.320;-121.762;2022-08-03T09:39:26;99922.28;;;25.86;26.66
49529;BME280;35423;37.320;-121.762;2022-08-03T09:44:18;99921.17;;;25.94;26.98
49529;BME280;35423;37.320;-121.762;2022-08-03T09:46:48;99925.26;;;25.96;27.04
49529;BME280;35423;37.320;-121.762;2022-08-03T09:49:11;99922.06;;;25.86;27.12
49529;BME280;35423;37.320;-121.762;2022-08-03T09:51:42;99922.25;;;26.25;27.12
49529;BME280;35423;37.320;-121.762;2022-08-03T09:54:09;99924.14;;;25.91;27.23
49529;BME280;35423;37.320;-121.762;2022-08-03T09:56:42;99924.75;;;25.61;27.27
49529;BME280;35423;37.320;-121.762;2022-08-03T09:59:01;99923.97;;;25.80;27.28
49529;BME280;35423;37.320;-121.762;2022-08-03T10:01:32;99921.94;;;25.74;27.32
49529;BME280;35423;37.320;-121.762;2022-08-03T10:03:58;99918.73;;;25.94;27.44
49529;BME280;35423;37.320;-121.762;2022-08-03T10:06:21;99920.24;;;25.44;27.39
49529;BME280;35423;37.320;-121.762;2022-08-03T10:09:05;99919.18;;;25.97;27.32
49529;BME280;35423;37.320;-121.762;2022-08-03T10:11:28;99916.20;;;25.84;27.34
49529;BME280;35423;37.320;-121.762;2022-08-03T10:13:49;99912.26;;;25.80;27.37
49529;BME280;35423;37.320;-121.762;2022-08-03T10:16:17;99905.08;;;25.73;27.46
49529;BME280;35423;37.320;-121.762;2022-08-03T10:18:45;99901.97;;;25.43;27.52
49529;BME280;35423;37.320;-121.762;2022-08-03T10:21:12;99902.82;;;25.63;27.67
49529;BME280;35423;37.320;-121.762;2022-08-03T10:23:38;99902.55;;;25.55;27.72
49529;BME280;35423;37.320;-121.762;2022-08-03T10:26:08;99899.38;;;25.50;27.92
49529;BME280;35423;37.320;-121.762;2022-08-03T10:28:36;99897.80;;;25.42;28.37
49529;BME280;35423;37.320;-121.762;2022-08-03T10:31:05;99895.54;;;25.10;28.62
49529;BME280;35423;37.320;-121.762;2022-08-03T10:33:36;99893.03;;;25.38;28.73
49529;BME280;35423;37.320;-121.762;2022-08-03T10:36:07;99894.74;;;25.29;28.95
49529;BME280;35423;37.320;-121.762;2022-08-03T10:38:36;99896.24;;;25.24;29.18
49529;BME280;35423;37.320;-121.762;2022-08-03T10:40:59;99900.72;;;25.17;29.73
49529;BME280;35423;37.320;-121.762;2022-08-03T10:43:33;99901.37;;;25.12;30.04
49529;BME280;35423;37.320;-121.762;2022-08-03T10:45:55;99907.33;;;25.06;30.44
49529;BME280;35423;37.320;-121.762;2022-08-03T10:48:22;99912.39;;;25.22;30.61
49529;BME280;35423;37.320;-121.762;2022-08-03T10:50:49;99908.47;;;24.91;30.69
49529;BME280;35423;37.320;-121.762;2022-08-03T10:53:15;99909.81;;;24.82;30.84
49529;BME280;35423;37.320;-121.762;2022-08-03T10:55:42;99915.58;;;24.88;30.99
49529;BME280;35423;37.320;-121.762;2022-08-03T10:58:07;99911.62;;;24.87;31.05
49529;BME280;35423;37.320;-121.762;2022-08-03T11:03:04;99909.55;;;25.10;31.27
49529;BME280;35423;37.320;-121.762;2022-08-03T11:05:28;99905.37;;;24.78;31.39
49529;BME280;35423;37.320;-121.762;2022-08-03T11:07:50;99901.31;;;24.80;31.40
49529;BME280;35423;37.320;-121.762;2022-08-03T11:12:43;99900.65;;;24.43;31.54
49529;BME280;35423;37.320;-121.762;2022-08-03T11:15:09;99899.35;;;24.67;31.70
49529;BME280;35423;37.320;-121.762;2022-08-03T11:17:37;99894.86;;;24.43;31.79
49529;BME280;35423;37.320;-121.762;2022-08-03T11:20:06;99895.58;;;24.39;31.84
49529;BME280;35423;37.320;-121.762;2022-08-03T11:25:01;99888.72;;;24.20;32.09
49529;BME280;35423;37.320;-121.762;2022-08-03T11:27:36;99888.72;;;24.57;32.09
49529;BME280;35423;37.320;-121.762;2022-08-03T11:30:04;99889.94;;;24.39;32.12
49529;BME280;35423;37.320;-121.762;2022-08-03T11:35:07;99886.47;;;24.66;31.86
49529;BME280;35423;37.320;-121.762;2022-08-03T11:37:32;99878.24;;;24.37;31.96
49529;BME280;35423;37.320;-121.762;2022-08-03T11:39:58;99875.09;;;24.51;31.95
49529;BME280;35423;37.320;-121.762;2022-08-03T11:44:51;99870.93;;;24.08;32.04
49529;BME280;35423;37.320;-121.762;2022-08-03T11:47:17;99869.54;;;24.04;32.06
49529;BME280;35423;37.320;-121.762;2022-08-03T11:49:51;99868.16;;;23.91;32.13
49529;BME280;35423;37.320;-121.762;2022-08-03T11:52:16;99868.37;;;24.14;32.00
49529;BME280;35423;37.320;-121.762;2022-08-03T11:54:45;99869.55;;;24.35;31.98
49529;BME280;35423;37.320;-121.762;2022-08-03T11:59:44;99870.56;;;23.97;32.20
49529;BME280;35423;37.320;-121.762;2022-08-03T12:02:12;99871.48;;;23.97;32.23
49529;BME280;35423;37.320;-121.762;2022-08-03T12:04:49;99876.54;;;24.09;32.24
49529;BME280;35423;37.320;-121.762;2022-08-03T12:07:10;99876.46;;;24.02;32.35
49529;BME280;35423;37.320;-121.762;2022-08-03T12:09:35;99878.14;;;23.58;32.39
49529;BME280;35423;37.320;-121.762;2022-08-03T12:12:04;99881.68;;;23.50;32.46
49529;BME280;35423;37.320;-121.762;2022-08-03T12:14:29;99885.44;;;23.89;32.42
49529;BME280;35423;37.320;-121.762;2022-08-03T12:16:55;99888.79;;;23.78;32.47
49529;BME280;35423;37.320;-121.762;2022-08-03T12:19:21;99886.84;;;23.96;32.48
49529;BME280;35423;37.320;-121.762;2022-08-03T12:21:49;99882.28;;;23.46;32.56
49529;BME280;35423;37.320;-121.762;2022-08-03T12:24:14;99884.30;;;23.48;32.57
49529;BME280;35423;37.320;-121.762;2022-08-03T12:26:45;99885.60;;;23.55;32.44
49529;BME280;35423;37.320;-121.762;2022-08-03T12:29:15;99882.78;;;23.76;32.52
49529;BME280;35423;37.320;-121.762;2022-08-03T12:31:42;99884.66;;;23.84;32.47
49529;BME280;35423;37.320;-121.762;2022-08-03T12:34:07;99887.67;;;24.06;32.41
49529;BME280;35423;37.320;-121.762;2022-08-03T12:36:37;99887.01;;;24.00;32.44
49529;BME280;35423;37.320;-121.762;2022-08-03T12:39:07;99888.87;;;23.79;32.42
49529;BME280;35423;37.320;-121.762;2022-08-03T12:41:33;99886.40;;;23.75;32.43
49529;BME280;35423;37.320;-121.762;2022-08-03T12:43:57;99885.04;;;23.96;32.42
49529;BME280;35423;37.320;-121.762;2022-08-03T12:46:30;99884.28;;;23.77;32.43
49529;BME280;35423;37.320;-121.762;2022-08-03T12:48:57;99884.56;;;23.72;32.46
49529;BME280;35423;37.320;-121.762;2022-08-03T12:51:17;99887.52;;;23.87;32.51
49529;BME280;35423;37.320;-121.762;2022-08-03T12:53:51;99891.72;;;23.60;32.56
49529;BME280;35423;37.320;-121.762;2022-08-03T12:56:10;99896.99;;;23.62;32.61
49529;BME280;35423;37.320;-121.762;2022-08-03T12:58:48;99898.92;;;24.01;32.62